Time;durP1;ratioP1;P1;durP2;ratioP2;P2;SDS_P1;SDS_P2;PMS_P1;PMS_P2;Temp;Humidity;BMP_temperature;BMP_pressure;BME280_temperature;BME280_humidity;BME280_pressure;Samples;Min_cycle;Max_cycle;Signal;HPM_P1;HPM_P2
2022/04/05 00:00:43;;;;;;;14.13;12.20;;;;;;;11.23;61.13;99366.31;5070675;28;20223;-58
2022/04/05 00:03:10;;;;;;;18.37;14.03;;;;;;;11.16;60.87;99359.38;5069040;28;20214;-58
2022/04/05 00:05:39;;;;;;;15.57;13.87;;;;;;;11.16;61.20;99359.38;5062574;28;20286;-58
2022/04/05 00:08:06;;;;;;;19.43;14.60;;;;;;;11.21;60.90;99362.84;5057932;28;20314;-58
2022/04/05 00:10:32;;;;;;;16.93;14.50;;;;;;;11.27;60.85;99357.78;5064026;28;20202;-58
2022/04/05 00:13:01;;;;;;;20.40;16.63;;;;;;;11.32;59.74;99359.56;5070205;28;20433;-58
2022/04/05 00:15:28;;;;;;;21.37;16.40;;;;;;;11.33;59.65;99358.69;5070315;28;20282;-58
2022/04/05 00:17:55;;;;;;;25.57;15.60;;;;;;;11.29;59.89;99362.94;5070425;28;20569;-59
2022/04/05 00:20:22;;;;;;;23.23;16.73;;;;;;;11.30;60.19;99358.66;5070541;28;20194;-58
2022/04/05 00:22:49;;;;;;;22.13;16.80;;;;;;;11.35;59.97;99359.56;5070378;28;20223;-58
2022/04/05 00:25:16;;;;;;;24.10;16.60;;;;;;;11.32;59.65;99357.00;5070358;28;20559;-57
2022/04/05 00:27:43;;;;;;;22.57;16.73;;;;;;;11.14;60.51;99325.06;5069527;28;20551;-58
2022/04/05 00:30:12;;;;;;;20.17;15.87;;;;;;;11.37;59.77;99355.34;5070612;28;20215;-58
2022/04/05 00:32:39;;;;;;;16.53;14.60;;;;;;;11.41;59.46;99357.94;5070391;28;20195;-58
2022/04/05 00:35:08;;;;;;;18.93;15.50;;;;;;;11.46;59.10;99355.41;5070402;28;20187;-58
2022/04/05 00:37:36;;;;;;;17.30;14.63;;;;;;;11.44;59.02;99357.97;5070666;28;20233;-58
2022/04/05 00:40:04;;;;;;;27.93;15.57;;;;;;;11.47;58.70;99349.44;5070122;28;20191;-58
2022/04/05 00:42:31;;;;;;;16.27;13.90;;;;;;;11.45;57.88;99343.41;5066461;28;20195;-58
2022/04/05 00:44:58;;;;;;;17.67;13.93;;;;;;;11.54;57.10;99340.91;5070700;28;20198;-59
2022/04/05 00:47:26;;;;;;;14.23;11.60;;;;;;;11.57;56.49;99335.78;5069423;28;20200;-58
2022/04/05 00:49:54;;;;;;;14.30;11.67;;;;;;;11.58;55.98;99337.53;5069199;28;20251;-58
2022/04/05 00:52:23;;;;;;;16.17;11.73;;;;;;;11.61;55.45;99327.25;5070142;28;20191;-58
2022/04/05 00:54:51;;;;;;;15.63;11.97;;;;;;;11.54;56.05;99317.75;5070102;28;20198;-58
2022/04/05 00:57:21;;;;;;;15.33;11.80;;;;;;;11.52;55.58;99327.16;5070346;28;20203;-58
2022/04/05 00:59:50;;;;;;;14.33;12.17;;;;;;;11.54;56.05;99321.19;5070172;28;20654;-58
2022/04/05 01:02:19;;;;;;;14.25;11.85;;;;;;;11.59;55.82;99321.25;5069437;28;20476;-58
2022/04/05 01:04:48;;;;;;;12.73;11.10;;;;;;;11.65;55.10;99318.72;5070336;28;21035;-58
2022/04/05 01:07:17;;;;;;;12.03;10.57;;;;;;;11.66;55.35;99321.31;5070015;28;20195;-58
2022/04/05 01:09:44;;;;;;;11.30;9.93;;;;;;;11.72;54.50;99320.53;5070101;28;20221;-58
2022/04/05 01:12:13;;;;;;;12.03;9.37;;;;;;;11.73;54.40;99310.25;5070124;28;20191;-58
2022/04/05 01:14:41;;;;;;;11.87;10.23;;;;;;;11.72;54.12;99313.69;5070070;28;20199;-58
2022/04/05 01:17:08;;;;;;;13.57;9.50;;;;;;;11.72;54.29;99310.25;5070036;28;20195;-58
2022/04/05 01:19:35;;;;;;;11.30;10.10;;;;;;;11.72;54.52;99307.69;5069881;28;20191;-58
2022/04/05 01:22:04;;;;;;;11.57;9.77;;;;;;;11.75;54.68;99302.56;5069864;28;20238;-58
2022/04/05 01:24:33;;;;;;;13.67;10.00;;;;;;;11.77;54.69;99308.56;5069393;28;20282;-58
2022/04/05 01:27:04;;;;;;;11.80;9.97;;;;;;;11.77;54.54;99299.16;5068941;28;20208;-58
2022/04/05 01:29:31;;;;;;;11.37;9.60;;;;;;;11.70;54.45;99289.63;5068780;28;20269;-59
2022/04/05 01:32:00;;;;;;;12.50;8.93;;;;;;;11.80;54.26;99293.16;5065408;28;20215;-60
2022/04/05 01:34:28;;;;;;;12.20;9.60;;;;;;;11.69;54.09;99274.19;5070875;28;20286;-60
2022/04/05 01:36:57;;;;;;;11.67;9.90;;;;;;;11.82;54.04;99291.44;5074958;28;20211;-59
2022/04/05 01:39:25;;;;;;;13.30;11.18;;;;;;;11.84;54.41;99300.03;5078474;28;20517;-60
2022/04/05 01:41:55;;;;;;;12.43;10.10;;;;;;;11.86;54.14;99289.75;5082789;28;20209;-59
2022/04/05 01:44:22;;;;;;;12.87;10.40;;;;;;;11.87;54.02;99286.34;5081830;28;20187;-60
2022/04/05 01:46:49;;;;;;;14.90;9.83;;;;;;;11.89;54.28;99288.09;5082588;28;20183;-59
2022/04/05 01:49:16;;;;;;;12.87;10.60;;;;;;;11.88;54.19;99277.75;5078490;28;20219;-60
2022/04/05 01:51:45;;;;;;;13.88;11.10;;;;;;;11.78;54.58;99276.84;5072712;28;20442;-60
2022/04/05 01:54:14;;;;;;;21.13;10.67;;;;;;;11.86;54.34;99279.47;5072957;28;20202;-59
2022/04/05 01:56:45;;;;;;;11.27;9.87;;;;;;;11.86;54.42;99282.91;5072875;28;20202;-60
2022/04/05 01:59:15;;;;;;;14.40;10.50;;;;;;;11.83;54.99;99282.88;5072811;28;20183;-60
2022/04/05 02:01:43;;;;;;;14.23;10.53;;;;;;;11.86;55.11;99277.75;5072594;28;20231;-59
2022/04/05 02:04:10;;;;;;;12.67;10.93;;;;;;;11.83;55.33;99278.59;5072862;28;20195;-60
2022/04/05 02:06:38;;;;;;;14.83;11.13;;;;;;;11.84;55.41;99280.31;5072875;28;20665;-60
2022/04/05 02:09:06;;;;;;;16.77;11.20;;;;;;;11.83;55.26;99273.47;5072749;28;20566;-60
2022/04/05 02:11:33;;;;;;;15.37;10.83;;;;;;;11.83;55.61;99278.59;5072763;28;20191;-60
2022/04/05 02:13:59;;;;;;;14.87;12.40;;;;;;;11.85;55.57;99286.31;5072514;28;20191;-60
2022/04/05 02:16:28;;;;;;;15.40;11.53;;;;;;;11.88;55.38;99286.34;5072892;28;20200;-60
2022/04/05 02:18:55;;;;;;;14.20;10.60;;;;;;;11.89;55.67;99280.38;5072557;28;20682;-58
2022/04/05 02:21:22;;;;;;;15.50;10.80;;;;;;;11.88;55.62;99276.06;5072343;28;20191;-58
2022/04/05 02:23:49;;;;;;;16.93;10.43;;;;;;;11.84;55.88;99275.16;5072568;28;20203;-58
2022/04/05 02:26:16;;;;;;;13.77;10.47;;;;;;;11.88;55.78;99282.91;5072488;28;20191;-58
2022/04/05 02:28:43;;;;;;;14.10;10.30;;;;;;;11.92;55.57;99275.22;5072702;28;20241;-58
2022/04/05 02:31:10;;;;;;;16.30;10.43;;;;;;;11.96;55.68;99274.41;5072443;28;20196;-58
2022/04/05 02:33:38;;;;;;;12.63;8.93;;;;;;;11.96;55.07;99278.69;5072434;28;20191;-58
2022/04/05 02:36:06;;;;;;;11.60;9.33;;;;;;;11.97;54.52;99262.38;5072097;28;20197;-58
2022/04/05 02:38:33;;;;;;;9.83;8.83;;;;;;;11.86;53.50;99240.84;5072265;28;20309;-58
2022/04/05 02:41:02;;;;;;;13.03;8.77;;;;;;;12.00;53.86;99265.84;5072153;28;20187;-58
2022/04/05 02:43:29;;;;;;;9.17;7.90;;;;;;;11.97;53.54;99263.25;5072579;28;20192;-58
2022/04/05 02:45:56;;;;;;;11.33;8.80;;;;;;;12.01;52.68;99272.72;5072424;28;20300;-58
2022/04/05 02:48:22;;;;;;;10.83;9.03;;;;;;;11.99;53.82;99274.41;5072197;28;20191;-58
2022/04/05 02:50:51;;;;;;;24.23;16.00;;;;;;;11.83;59.53;99277.75;5071621;28;20222;-58
2022/04/05 02:53:18;;;;;;;20.63;15.67;;;;;;;11.56;61.95;99270.63;5072001;28;20191;-58
2022/04/05 02:55:45;;;;;;;22.43;15.77;;;;;;;11.12;63.99;99277.91;5071834;28;20203;-58
2022/04/05 02:58:13;;;;;;;22.00;17.07;;;;;;;11.11;64.55;99272.75;5071908;28;20595;-58
2022/04/05 03:00:40;;;;;;;21.80;15.50;;;;;;;11.02;65.37;99273.50;5071600;28;20211;-58
2022/04/05 03:03:07;;;;;;;24.57;17.57;;;;;;;10.95;65.65;99266.59;5071863;28;20206;-58
2022/04/05 03:05:34;;;;;;;24.87;16.70;;;;;;;10.93;67.18;99270.00;5071545;28;20286;-58
2022/04/05 03:08:03;;;;;;;23.00;18.17;;;;;;;10.95;67.42;99274.31;5071419;28;20286;-58
2022/04/05 03:10:32;;;;;;;26.70;17.93;;;;;;;10.83;67.46;99271.59;5071692;28;20258;-58
2022/04/05 03:13:01;;;;;;;20.37;17.43;;;;;;;10.78;67.76;99268.09;5071343;28;20207;-58
2022/04/05 03:15:28;;;;;;;23.50;17.40;;;;;;;10.66;68.25;99265.38;5071314;28;20615;-58
2022/04/05 03:17:55;;;;;;;21.40;16.57;;;;;;;10.59;69.19;99268.72;5071211;28;20203;-58
2022/04/05 03:20:22;;;;;;;22.33;16.50;;;;;;;10.59;69.09;99263.59;5071268;28;20616;-59
2022/04/05 03:22:50;;;;;;;23.20;15.87;;;;;;;10.61;68.96;99260.19;5071214;28;20199;-60
2022/04/05 03:25:18;;;;;;;25.80;16.77;;;;;;;10.65;68.80;99261.09;5071323;28;20278;-60
2022/04/05 03:27:45;;;;;;;28.30;16.83;;;;;;;10.70;68.48;99259.44;5071210;28;20339;-60
2022/04/05 03:30:14;;;;;;;23.13;16.77;;;;;;;10.73;68.91;99253.47;5070713;28;20704;-60
2022/04/05 03:32:41;;;;;;;21.87;16.47;;;;;;;10.68;68.99;99251.69;5070951;28;20192;-60
2022/04/05 03:35:09;;;;;;;20.47;17.23;;;;;;;10.74;69.02;99255.22;5070988;28;20207;-60
2022/04/05 03:37:36;;;;;;;21.43;16.17;;;;;;;10.54;68.69;99239.56;5071396;28;20192;-59
2022/04/05 03:40:04;;;;;;;19.63;15.50;;;;;;;10.53;69.58;99243.81;5070877;28;20547;-60
2022/04/05 03:42:33;;;;;;;22.73;16.03;;;;;;;10.66;69.01;99267.94;5070852;28;20187;-59
2022/04/05 03:45:00;;;;;;;21.13;17.17;;;;;;;10.64;69.03;99264.50;5070672;28;20654;-60
2022/04/05 03:47:27;;;;;;;24.40;17.13;;;;;;;10.71;68.91;99265.44;5070893;28;20658;-60
2022/04/05 03:49:55;;;;;;;22.23;16.17;;;;;;;10.53;69.07;99232.69;5070685;28;20219;-60
2022/04/05 03:52:22;;;;;;;24.43;16.57;;;;;;;10.68;68.91;99265.41;5070653;28;20188;-60
2022/04/05 03:54:49;;;;;;;22.83;17.80;;;;;;;10.68;68.25;99267.13;5071017;28;20197;-60
2022/04/05 03:57:16;;;;;;;20.37;17.10;;;;;;;10.71;68.16;99265.44;5070512;28;20203;-59
2022/04/05 03:59:44;;;;;;;20.60;16.77;;;;;;;10.58;68.13;99239.59;5070512;28;20202;-59
2022/04/05 04:02:11;;;;;;;22.27;16.47;;;;;;;10.66;68.71;99271.38;5070583;28;20577;-59
2022/04/05 04:04:38;;;;;;;22.77;16.63;;;;;;;10.80;68.40;99268.09;5070377;28;20199;-60
2022/04/05 04:07:05;;;;;;;21.17;16.93;;;;;;;10.83;68.29;99269.00;5070426;28;20202;-60
2022/04/05 04:09:32;;;;;;;21.67;19.30;;;;;;;10.93;67.87;99275.13;5069767;28;20456;-60
2022/04/05 04:11:59;;;;;;;23.43;17.70;;;;;;;11.02;67.03;99268.38;5070701;28;20195;-60
2022/04/05 04:14:26;;;;;;;30.97;19.93;;;;;;;11.02;67.00;99267.50;5069762;28;20191;-59
2022/04/05 04:16:55;;;;;;;25.87;18.90;;;;;;;11.05;66.79;99267.53;5069040;28;20199;-59
2022/04/05 04:19:21;;;;;;;24.97;17.77;;;;;;;11.09;66.31;99270.19;5069353;28;20289;-59
2022/04/05 04:21:48;;;;;;;23.77;18.13;;;;;;;10.93;64.97;99268.25;5068955;28;20533;-60
2022/04/05 04:24:15;;;;;;;26.57;18.00;;;;;;;10.98;65.22;99271.78;5069206;28;20199;-60
2022/04/05 04:26:42;;;;;;;23.83;17.87;;;;;;;11.00;65.24;99266.63;5069419;28;20194;-60
2022/04/05 04:29:09;;;;;;;24.63;17.07;;;;;;;10.99;65.52;99272.59;5087140;28;20202;-61
2022/04/05 04:31:36;;;;;;;26.10;18.17;;;;;;;11.04;64.74;99264.09;5090240;28;20218;-60
2022/04/05 04:34:05;;;;;;;22.03;17.10;;;;;;;11.01;65.06;99270.94;5090341;28;20191;-60
2022/04/05 04:36:33;;;;;;;23.30;16.83;;;;;;;11.09;64.22;99269.31;5090422;28;20580;-59
2022/04/05 04:39:00;;;;;;;22.93;17.03;;;;;;;11.14;64.17;99271.09;5090196;28;20665;-60
2022/04/05 04:41:27;;;;;;;20.30;16.30;;;;;;;11.13;64.11;99271.03;5090270;28;20187;-59
2022/04/05 04:43:54;;;;;;;24.57;16.57;;;;;;;11.22;63.38;99273.72;5077160;28;20290;-60
2022/04/05 04:46:21;;;;;;;24.23;17.07;;;;;;;11.23;63.24;99272.88;5050048;28;20606;-60
2022/04/05 04:48:48;;;;;;;22.07;17.23;;;;;;;11.28;62.90;99273.78;5050212;28;20196;-60
2022/04/05 04:51:16;;;;;;;22.97;17.07;;;;;;;11.26;62.98;99271.19;5049821;28;20703;-61
2022/04/05 04:53:43;;;;;;;23.17;17.60;;;;;;;11.28;62.65;99276.38;5049842;28;20282;-60
2022/04/05 04:56:10;;;;;;;22.50;18.47;;;;;;;11.36;62.41;99282.44;5053807;28;20192;-61
2022/04/05 04:58:38;;;;;;;20.90;17.97;;;;;;;11.46;61.81;99280.81;5072316;28;20270;-58
2022/04/05 05:01:05;;;;;;;21.80;18.27;;;;;;;11.42;61.71;99279.94;5079496;28;20232;-60
2022/04/05 05:03:31;;;;;;;27.27;19.23;;;;;;;11.40;61.83;99275.63;5073394;28;20578;-60
2022/04/05 05:05:58;;;;;;;26.73;18.40;;;;;;;11.35;61.87;99273.00;5069807;28;20205;-60
2022/04/05 05:08:27;;;;;;;25.83;18.53;;;;;;;11.39;62.12;99274.75;5069837;28;20191;-60
2022/04/05 05:10:54;;;;;;;26.50;17.50;;;;;;;11.44;61.92;99280.81;5069672;28;20215;-59
2022/04/05 05:13:21;;;;;;;26.13;19.73;;;;;;;11.45;61.91;99281.66;5070462;28;20437;-60
2022/04/05 05:15:48;;;;;;;22.00;17.57;;;;;;;11.43;61.66;99275.63;5073501;28;20274;-60
2022/04/05 05:18:16;;;;;;;23.60;18.57;;;;;;;11.48;61.57;99279.97;5073105;28;20188;-60
2022/04/05 05:20:43;;;;;;;26.17;18.93;;;;;;;11.56;61.58;99286.06;5073132;28;20252;-60
2022/04/05 05:23:10;;;;;;;21.73;16.77;;;;;;;11.51;62.10;99285.13;5078579;28;20195;-61
2022/04/05 05:25:38;;;;;;;21.90;16.97;;;;;;;11.06;61.68;99223.00;5082864;28;20270;-62
2022/04/05 05:28:05;;;;;;;21.43;16.50;;;;;;;11.47;61.90;99291.13;5082637;28;20291;-60
2022/04/05 05:30:33;;;;;;;19.70;16.70;;;;;;;11.52;61.86;99294.59;5083963;28;20203;-60
2022/04/05 05:33:00;;;;;;;24.93;17.83;;;;;;;11.52;61.71;99291.16;5082498;28;20669;-61
2022/04/05 05:35:27;;;;;;;22.93;17.37;;;;;;;11.55;61.48;99289.47;5082049;28;20187;-61
2022/04/05 05:37:54;;;;;;;25.37;18.43;;;;;;;11.61;61.64;99288.66;5083497;28;20577;-61
2022/04/05 05:40:20;;;;;;;27.37;17.87;;;;;;;11.74;61.23;99290.53;5075138;28;20196;-60
2022/04/05 05:42:55;;;;;;;34.23;24.40;;;;;;;11.66;61.34;99290.44;5072525;28;20195;-61
2022/04/05 05:45:22;;;;;;;25.97;19.67;;;;;;;11.60;61.66;99286.94;5073064;28;20202;-60
2022/04/05 05:47:49;;;;;;;30.60;19.60;;;;;;;11.66;61.29;99293.00;5072689;28;20662;-61
2022/04/05 05:50:16;;;;;;;25.93;19.97;;;;;;;11.50;62.21;99290.28;5072720;28;20234;-59
2022/04/05 05:52:44;;;;;;;28.47;21.00;;;;;;;11.49;62.78;99291.13;5072846;28;20620;-61
2022/04/05 05:55:12;;;;;;;27.17;18.90;;;;;;;11.52;62.36;99288.59;5072430;28;20195;-60
2022/04/05 05:57:39;;;;;;;25.97;21.57;;;;;;;11.66;62.28;99280.16;5072816;28;20199;-60
2022/04/05 06:00:10;;;;;;;26.67;19.27;;;;;;;11.76;61.88;99286.25;5072567;28;20227;-61
2022/04/05 06:02:38;;;;;;;25.77;20.70;;;;;;;11.65;61.89;99292.97;5072290;28;20975;-60
2022/04/05 06:05:06;;;;;;;30.80;21.67;;;;;;;11.88;61.44;99294.06;5078544;28;20639;-61
2022/04/05 06:07:34;;;;;;;29.53;19.43;;;;;;;11.85;61.50;99286.31;5073588;28;20244;-62
2022/04/05 06:10:01;;;;;;;27.27;18.73;;;;;;;11.90;61.07;99288.91;5071382;28;20278;-60
2022/04/05 06:12:28;;;;;;;38.90;20.30;;;;;;;12.04;60.74;99293.34;5071347;28;20278;-61
2022/04/05 06:14:55;;;;;;;25.33;20.47;;;;;;;12.04;60.87;99298.47;5075879;28;20664;-61
2022/04/05 06:17:24;;;;;;;29.70;20.97;;;;;;;11.82;61.84;99294.88;5079097;28;20693;-62
2022/04/05 06:19:51;;;;;;;27.80;21.23;;;;;;;11.87;61.70;99301.81;5079672;28;20634;-62
2022/04/05 06:22:18;;;;;;;34.40;24.67;;;;;;;12.12;61.30;99301.97;5078316;28;20245;-61
2022/04/05 06:24:46;;;;;;;30.33;20.37;;;;;;;12.27;60.50;99301.22;5076933;28;20194;-61
2022/04/05 06:27:13;;;;;;;24.40;20.27;;;;;;;12.39;60.68;99297.00;5081820;28;20234;-61
2022/04/05 06:29:40;;;;;;;26.97;18.77;;;;;;;12.44;59.39;99302.19;5080186;28;20453;-61
2022/04/05 06:32:08;;;;;;;30.00;20.00;;;;;;;12.40;59.78;99305.59;5079888;28;20247;-60
2022/04/05 06:34:36;;;;;;;23.90;18.93;;;;;;;12.25;60.06;99298.63;5080856;28;20215;-60
2022/04/05 06:37:03;;;;;;;26.08;20.38;;;;;;;11.86;60.85;99300.06;5082483;28;20778;-62
2022/04/05 06:39:30;;;;;;;26.30;18.43;;;;;;;11.85;60.84;99301.78;5079219;28;20203;-60
2022/04/05 06:41:57;;;;;;;24.77;18.10;;;;;;;11.91;60.83;99303.53;5071528;28;20199;-61
2022/04/05 06:44:24;;;;;;;28.10;18.97;;;;;;;11.90;60.44;99310.38;5071560;28;20180;-61
2022/04/05 06:46:51;;;;;;;26.17;19.13;;;;;;;12.01;60.57;99311.34;5071982;28;20362;-61
2022/04/05 06:49:18;;;;;;;21.77;19.37;;;;;;;12.15;60.18;99312.28;5071872;28;20180;-61
2022/04/05 06:51:46;;;;;;;23.95;21.40;;;;;;;12.28;59.95;99314.09;5070572;28;20485;-60
2022/04/05 06:54:13;;;;;;;30.87;21.47;;;;;;;12.17;58.93;99318.31;5070695;28;20222;-62
2022/04/05 06:56:40;;;;;;;30.53;19.00;;;;;;;12.21;58.77;99316.63;5071277;28;20201;-60
2022/04/05 06:59:07;;;;;;;23.77;18.33;;;;;;;12.23;59.11;99309.75;5071357;28;20660;-61
2022/04/05 07:01:35;;;;;;;25.40;18.07;;;;;;;12.36;58.86;99306.44;5071031;28;20306;-61
2022/04/05 07:04:03;;;;;;;19.37;16.40;;;;;;;12.30;58.67;99312.41;5069034;28;20192;-60
2022/04/05 07:06:30;;;;;;;19.73;16.63;;;;;;;12.31;58.89;99313.25;5056115;28;20200;-61
2022/04/05 07:08:59;;;;;;;34.97;16.87;;;;;;;12.37;58.78;99303.84;5070631;28;20217;-60
2022/04/05 07:11:26;;;;;;;21.47;16.67;;;;;;;12.53;58.12;99309.94;5070573;28;20219;-61
2022/04/05 07:13:53;;;;;;;21.23;15.40;;;;;;;12.60;58.15;99304.00;5070767;28;20203;-61
2022/04/05 07:16:20;;;;;;;21.95;17.70;;;;;;;12.74;58.30;99304.91;5070096;28;20429;-61
2022/04/05 07:18:47;;;;;;;20.80;15.37;;;;;;;13.03;57.23;99313.63;5070794;28;20643;-58
2022/04/05 07:21:14;;;;;;;23.53;15.93;;;;;;;13.11;56.19;99321.41;5070738;28;20180;-60
2022/04/05 07:23:40;;;;;;;21.20;14.40;;;;;;;13.18;56.37;99317.16;5070686;28;20286;-61
2022/04/05 07:26:09;;;;;;;15.77;14.03;;;;;;;13.32;54.92;99311.13;5070663;28;20290;-61
2022/04/05 07:28:35;;;;;;;19.90;15.50;;;;;;;13.38;55.14;99308.56;5070281;28;20196;-62
2022/04/05 07:31:03;;;;;;;20.67;16.83;;;;;;;13.18;54.56;99312.84;5070415;28;20321;-61
2022/04/05 07:33:30;;;;;;;21.03;15.47;;;;;;;12.92;55.43;99314.44;5070973;28;20195;-61
2022/04/05 07:35:57;;;;;;;27.00;18.27;;;;;;;13.20;54.80;99307.69;5068203;28;20197;-61
2022/04/05 07:38:25;;;;;;;21.53;15.43;;;;;;;13.62;53.73;99314.66;5070643;28;20218;-61
2022/04/05 07:40:53;;;;;;;19.38;17.17;;;;;;;13.78;52.69;99311.22;5069537;28;20824;-61
2022/04/05 07:43:25;;;;;;;19.07;16.43;;;;;;;13.84;52.56;99314.69;5070067;28;20654;-61
2022/04/05 07:45:53;;;;;;;23.07;15.53;;;;;;;13.59;52.65;99310.34;5070285;28;20298;-61
2022/04/05 07:48:22;;;;;;;22.10;16.03;;;;;;;13.78;52.66;99306.06;5070771;28;20199;-61
2022/04/05 07:50:51;;;;;;;22.50;15.07;;;;;;;13.98;52.12;99310.34;5070549;28;20306;-61
2022/04/05 07:53:18;;;;;;;18.20;14.87;;;;;;;14.06;51.43;99282.78;5070361;28;20615;-61
2022/04/05 07:55:45;;;;;;;26.27;15.83;;;;;;;14.16;51.21;99304.31;5070244;28;20184;-61
2022/04/05 07:58:12;;;;;;;17.77;14.50;;;;;;;14.54;49.78;99296.50;5069987;28;20226;-61
2022/04/05 08:00:41;;;;;;;22.13;15.13;;;;;;;14.57;49.73;99301.66;5069285;28;20219;-60
2022/04/05 08:03:08;;;;;;;19.87;15.40;;;;;;;14.50;49.54;99295.66;5068927;28;20197;-62
2022/04/05 08:05:35;;;;;;;20.43;16.37;;;;;;;14.40;50.11;99296.53;5069036;28;20286;-61
2022/04/05 08:08:02;;;;;;;22.33;16.37;;;;;;;14.61;49.75;99296.47;5068837;28;20210;-58
2022/04/05 08:10:29;;;;;;;24.30;16.57;;;;;;;14.80;49.34;99294.72;5069222;28;20274;-58
2022/04/05 08:12:56;;;;;;;21.60;15.63;;;;;;;14.97;48.40;99290.28;5068804;28;20206;-59
2022/04/05 08:15:24;;;;;;;17.67;15.60;;;;;;;15.07;47.77;99286.81;5069967;28;20257;-58
2022/04/05 08:17:52;;;;;;;21.65;17.30;;;;;;;14.89;47.87;99288.63;5068661;28;20445;-58
2022/04/05 08:20:20;;;;;;;20.80;15.97;;;;;;;15.02;47.22;99291.16;5069795;28;20192;-58
2022/04/05 08:22:48;;;;;;;18.37;16.23;;;;;;;15.19;46.78;99285.91;5069479;28;20211;-58
2022/04/05 08:25:17;;;;;;;19.97;16.20;;;;;;;15.32;46.27;99277.19;5069640;28;20197;-59
2022/04/05 08:27:45;;;;;;;19.87;16.60;;;;;;;15.34;46.00;99284.06;5069331;28;20202;-59
2022/04/05 08:30:15;;;;;;;20.97;16.03;;;;;;;15.19;46.26;99272.97;5069840;28;20197;-57
2022/04/05 08:32:43;;;;;;;20.57;15.70;;;;;;;15.27;46.46;99268.59;5069693;28;20230;-58
2022/04/05 08:35:13;;;;;;;20.87;16.40;;;;;;;15.32;46.34;99272.88;5069699;28;20199;-56
2022/04/05 08:37:40;;;;;;;31.63;18.07;;;;;;;15.50;45.90;99269.31;5069825;28;20323;-58
2022/04/05 08:40:08;;;;;;;22.70;17.17;;;;;;;15.34;45.49;99271.13;5070254;28;20581;-58
2022/04/05 08:42:36;;;;;;;22.37;15.40;;;;;;;15.19;46.29;99271.22;5069636;28;20217;-57
2022/04/05 08:45:06;;;;;;;19.83;16.10;;;;;;;15.01;46.89;99262.69;5069577;28;20191;-58
2022/04/05 08:47:36;;;;;;;20.60;16.50;;;;;;;15.02;46.93;99256.66;5069261;28;20203;-58
2022/04/05 08:50:03;;;;;;;17.10;15.27;;;;;;;15.47;45.14;99252.94;5073741;28;20298;-58
2022/04/05 08:52:32;;;;;;;19.33;14.67;;;;;;;15.72;44.42;99255.34;5073641;28;20223;-59
2022/04/05 08:54:59;;;;;;;23.00;14.90;;;;;;;15.62;44.26;99252.84;5073385;28;20278;-62
2022/04/05 08:57:25;;;;;;;18.20;15.73;;;;;;;15.63;44.45;99244.22;5073396;28;20275;-61
2022/04/05 08:59:52;;;;;;;18.30;16.33;;;;;;;15.24;45.42;99242.72;5073395;28;20257;-60
2022/04/05 09:02:25;;;;;;;18.00;16.10;;;;;;;15.22;46.20;99236.69;5073165;28;20623;-61
2022/04/05 09:04:52;;;;;;;21.60;16.13;;;;;;;15.33;45.97;99230.56;5073430;28;20280;-61
2022/04/05 09:07:21;;;;;;;17.30;14.83;;;;;;;15.23;45.39;99228.91;5073299;28;20187;-61
2022/04/05 09:10:08;;;;;;;16.60;14.17;;;;;;;15.01;45.39;99227.34;5073373;28;20608;-60
2022/04/05 09:12:46;;;;;;;19.13;14.07;;;;;;;14.82;45.73;99220.53;5073094;28;20224;-61
2022/04/05 09:15:26;;;;;;;19.43;14.47;;;;;;;14.72;45.71;99213.72;5073395;28;20191;-61
2022/04/05 09:17:54;;;;;;;19.67;14.33;;;;;;;14.49;45.69;99179.34;5073089;28;20188;-61
2022/04/05 09:20:24;;;;;;;17.80;14.67;;;;;;;14.53;45.85;99189.63;5073149;28;20604;-61
2022/04/05 09:22:52;;;;;;;19.90;15.70;;;;;;;14.62;45.85;99212.88;5073077;28;20199;-60
2022/04/05 09:25:21;;;;;;;19.87;15.77;;;;;;;14.48;46.29;99209.50;5072550;28;20184;-61
2022/04/05 09:27:50;;;;;;;17.80;14.60;;;;;;;14.74;46.18;99206.78;5072450;28;20227;-61
2022/04/05 09:30:19;;;;;;;16.60;13.37;;;;;;;14.80;45.46;99209.34;5072620;28;20307;-62
2022/04/05 09:32:48;;;;;;;14.13;11.93;;;;;;;14.42;45.26;99211.25;5072374;28;20692;-61
2022/04/05 09:35:18;;;;;;;13.63;11.57;;;;;;;14.43;45.44;99219.00;5072549;28;20292;-60
2022/04/05 09:37:45;;;;;;;14.47;11.27;;;;;;;14.46;45.58;99216.41;5072671;28;20187;-61
2022/04/05 09:40:31;;;;;;;12.30;10.77;;;;;;;14.75;45.62;99214.53;5072506;28;20188;-61
2022/04/05 09:43:07;;;;;;;13.73;10.57;;;;;;;14.90;45.25;99212.75;5072569;28;20249;-58
2022/04/05 09:45:45;;;;;;;14.33;11.13;;;;;;;14.98;44.40;99206.66;5072697;28;20201;-58
2022/04/05 09:48:12;;;;;;;13.20;11.80;;;;;;;15.15;43.90;99203.97;5072490;28;20197;-58
2022/04/05 09:51:09;;;;;;;12.03;10.33;;;;;;;15.23;44.23;99200.44;5072523;28;20190;-59
2022/04/05 09:53:45;;;;;;;12.23;10.03;;;;;;;15.09;43.43;99201.41;5072339;28;20253;-58
2022/04/05 09:56:16;;;;;;;15.17;11.53;;;;;;;15.10;43.86;99193.66;5072242;28;20200;-57
2022/04/05 09:58:51;;;;;;;13.90;10.73;;;;;;;15.39;43.29;99193.41;5072050;28;20288;-58
2022/04/05 10:01:20;;;;;;;14.40;10.87;;;;;;;15.46;42.43;99179.59;5072064;28;20321;-58
2022/04/05 10:03:58;;;;;;;12.40;10.50;;;;;;;15.50;42.29;99181.28;5072256;28;20196;-57
2022/04/05 10:06:26;;;;;;;15.10;11.67;;;;;;;15.63;42.84;99185.47;5072285;28;20219;-58
2022/04/05 10:08:55;;;;;;;16.00;11.40;;;;;;;15.72;42.14;99177.63;5072153;28;20273;-58
2022/04/05 10:11:25;;;;;;;13.80;12.33;;;;;;;15.82;41.70;99179.25;5070788;28;20476;-57
2022/04/05 10:13:52;;;;;;;12.83;11.53;;;;;;;15.85;41.38;99168.84;5071392;28;20191;-58
2022/04/05 10:16:20;;;;;;;15.60;11.20;;;;;;;15.83;42.12;99164.56;5071695;28;20187;-58
2022/04/05 10:18:48;;;;;;;15.13;12.40;;;;;;;16.02;42.90;99157.44;5071345;28;20686;-59
2022/04/05 10:21:16;;;;;;;13.20;11.80;;;;;;;15.91;42.40;99153.25;5071340;28;20213;-58
2022/04/05 10:23:44;;;;;;;12.07;10.10;;;;;;;15.79;42.17;99158.53;5071637;28;20196;-57
2022/04/05 10:26:15;;;;;;;10.67;9.27;;;;;;;16.00;41.54;99154.88;5071631;28;20574;-57
2022/04/05 10:28:46;;;;;;;12.27;9.17;;;;;;;16.16;41.55;99147.78;5071330;28;20283;-58
2022/04/05 10:31:18;;;;;;;13.80;10.90;;;;;;;16.30;41.45;99145.88;5071329;28;20202;-58
2022/04/05 10:34:01;;;;;;;14.27;9.87;;;;;;;16.00;41.63;99136.75;5071177;28;20196;-58
2022/04/05 10:36:28;;;;;;;10.50;8.90;;;;;;;16.07;42.13;99138.38;5070871;28;20621;-59
2022/04/05 10:39:14;;;;;;;11.23;9.50;;;;;;;15.98;41.92;99135.06;5071293;28;20187;-58
2022/04/05 10:41:41;;;;;;;9.10;8.20;;;;;;;15.82;42.05;99129.19;5053388;28;20200;-58
2022/04/05 10:44:26;;;;;;;8.43;7.63;;;;;;;15.40;43.17;99120.06;5066076;28;20195;-58
2022/04/05 10:46:57;;;;;;;9.80;7.23;;;;;;;15.40;43.13;99125.25;5067702;28;20778;-58
2022/04/05 10:49:39;;;;;;;9.35;8.45;;;;;;;15.69;41.95;99119.81;5061291;28;20462;-58
2022/04/05 10:52:11;;;;;;;9.47;7.73;;;;;;;15.96;41.09;99111.72;5059558;28;20216;-62
2022/04/05 10:54:40;;;;;;;9.80;7.77;;;;;;;16.17;40.63;99121.00;5051403;28;20199;-61
2022/04/05 10:57:35;;;;;;;8.00;6.47;;;;;;;15.52;39.66;99112.19;5054825;28;20289;-61
2022/04/05 11:00:10;;;;;;;7.80;6.83;;;;;;;15.33;41.57;99120.97;5071474;28;20223;-60
2022/04/05 11:02:45;;;;;;;11.18;9.15;;;;;;;15.60;42.17;99101.78;5070641;28;20540;-61
2022/04/05 11:05:42;;;;;;;7.17;6.50;;;;;;;15.71;40.61;99097.34;5051031;28;20213;-61
2022/04/05 11:08:17;;;;;;;8.40;6.30;;;;;;;15.56;39.75;99097.50;5051343;28;20194;-62
2022/04/05 11:10:55;;;;;;;7.60;6.87;;;;;;;15.82;39.07;99095.50;5050739;28;20207;-62
2022/04/05 11:13:36;;;;;;;12.13;6.97;;;;;;;16.15;40.16;99089.91;5051050;28;20781;-62
2022/04/05 11:16:10;;;;;;;7.10;6.40;;;;;;;16.24;39.73;99089.78;5050733;28;20610;-61
2022/04/05 11:18:39;;;;;;;11.30;6.13;;;;;;;16.27;40.09;99084.56;5051104;28;20655;-61
2022/04/05 11:21:09;;;;;;;10.47;7.37;;;;;;;16.18;39.98;99050.97;5051065;28;20205;-61
2022/04/05 11:23:51;;;;;;;8.00;7.20;;;;;;;16.55;39.52;99077.31;5050727;28;20579;-61
2022/04/05 11:26:35;;;;;;;9.43;7.60;;;;;;;16.73;38.76;99065.81;5050684;28;20197;-61